createdAt,value
2018-07-03T07:37:08.652Z,4.87
2018-07-03T07:39:37.322Z,7.20
2018-07-03T07:42:05.215Z,5.30
2018-07-03T07:44:32.984Z,5.10
2018-07-03T07:47:00.864Z,6.93
2018-07-03T07:49:28.755Z,6.43
2018-07-03T07:51:56.530Z,4.50
2018-07-03T07:54:24.415Z,6.90
2018-07-03T07:56:52.186Z,5.70
2018-07-03T07:59:19.995Z,5.13
2018-07-03T08:01:47.856Z,6.10
2018-07-03T08:04:15.736Z,6.47
2018-07-03T08:06:43.550Z,7.07
2018-07-03T08:09:11.422Z,5.37
2018-07-03T08:11:39.190Z,5.47
2018-07-03T08:14:07.283Z,7.03
2018-07-03T08:16:35.178Z,4.77
2018-07-03T08:19:03.079Z,6.27
2018-07-03T08:21:30.861Z,4.43
2018-07-03T08:23:58.662Z,5.47
2018-07-03T08:26:26.490Z,6.00
2018-07-03T08:28:54.360Z,5.53
2018-07-03T08:31:22.271Z,5.63
2018-07-03T08:33:50.055Z,7.07
2018-07-03T08:36:17.917Z,7.10
2018-07-03T08:38:45.739Z,4.63
2018-07-03T08:41:13.539Z,5.57
2018-07-03T08:43:41.347Z,4.80
2018-07-03T08:46:09.551Z,6.00
2018-07-03T08:48:37.362Z,10.77
2018-07-03T08:51:05.175Z,6.30
2018-07-03T08:53:33.058Z,9.47
2018-07-03T08:56:00.892Z,4.67
2018-07-03T08:58:28.677Z,8.07
2018-07-03T09:00:56.714Z,4.60
2018-07-03T09:03:24.448Z,5.47
2018-07-03T09:05:52.267Z,5.33
2018-07-03T09:08:20.316Z,5.40
2018-07-03T09:10:50.444Z,5.37
2018-07-03T09:13:18.272Z,6.03
2018-07-03T09:18:05.015Z,4.47
2018-07-03T09:20:32.806Z,7.80
2018-07-03T09:23:00.621Z,6.20
2018-07-03T09:25:28.518Z,6.23
2018-07-03T09:28:02.767Z,5.13
2018-07-03T09:30:30.670Z,7.27
2018-07-03T09:32:58.606Z,4.50
2018-07-03T09:35:26.495Z,6.23
2018-07-03T09:37:54.388Z,5.07
2018-07-03T09:40:22.176Z,4.77
2018-07-03T09:42:50.019Z,6.77
2018-07-03T09:45:17.947Z,4.53
2018-07-03T09:47:45.819Z,5.33
2018-07-03T09:50:13.625Z,5.17
2018-07-03T09:52:41.537Z,5.97
2018-07-03T09:55:09.264Z,5.97
2018-07-03T09:57:37.109Z,4.80
2018-07-03T10:00:05.328Z,4.27
2018-07-03T10:02:33.119Z,3.97
2018-07-03T10:05:00.974Z,3.93
2018-07-03T10:07:28.763Z,5.73
2018-07-03T10:09:56.604Z,5.33
2018-07-03T10:12:24.486Z,4.23
2018-07-03T10:14:52.332Z,5.00
2018-07-03T10:17:20.132Z,6.23
2018-07-03T10:19:48.015Z,4.60
2018-07-03T10:22:15.859Z,4.20
2018-07-03T10:24:43.688Z,4.53
2018-07-03T10:27:11.480Z,5.40
2018-07-03T10:29:39.327Z,4.17
2018-07-03T10:32:07.157Z,6.60
2018-07-03T10:34:34.981Z,4.10
2018-07-03T10:37:02.850Z,5.77
2018-07-03T10:39:30.711Z,3.67
2018-07-03T10:41:58.542Z,4.00
2018-07-03T10:44:26.361Z,4.07
2018-07-03T10:46:54.191Z,4.87
2018-07-03T10:49:22.000Z,3.90
2018-07-03T10:51:49.892Z,3.60
2018-07-03T10:54:17.791Z,6.33
2018-07-03T10:56:45.670Z,5.17
2018-07-03T10:59:13.560Z,8.53
2018-07-03T11:01:41.378Z,26.90
2018-07-03T11:04:09.261Z,5.37
2018-07-03T11:06:37.044Z,4.00
2018-07-03T11:09:06.931Z,3.70
2018-07-03T11:11:34.762Z,3.87
2018-07-03T11:14:02.654Z,5.07
2018-07-03T11:16:30.446Z,4.33
2018-07-03T11:18:58.348Z,3.87
2018-07-03T11:21:26.202Z,3.53
2018-07-03T11:23:53.984Z,5.80
2018-07-03T11:26:21.768Z,4.07
2018-07-03T11:28:49.609Z,3.50
2018-07-03T11:31:17.456Z,5.37
2018-07-03T11:33:45.293Z,4.23
2018-07-03T11:36:13.064Z,4.00
2018-07-03T11:38:40.942Z,4.93
2018-07-03T11:41:08.734Z,3.60
2018-07-03T11:43:36.546Z,5.67
2018-07-03T11:46:04.391Z,4.27
2018-07-03T11:48:32.313Z,3.87
2018-07-03T11:51:00.207Z,5.80
2018-07-03T11:53:27.990Z,4.60
2018-07-03T11:55:55.816Z,4.53
2018-07-03T11:58:23.622Z,5.47
2018-07-03T12:00:51.504Z,4.27
2018-07-03T12:03:19.278Z,5.37
2018-07-03T12:05:47.111Z,4.03
2018-07-03T12:08:14.902Z,4.13
2018-07-03T12:10:42.754Z,4.13
2018-07-03T12:13:10.515Z,4.87
2018-07-03T12:15:38.406Z,4.47
2018-07-03T12:18:10.787Z,5.73
2018-07-03T12:20:38.669Z,4.73
2018-07-03T12:23:06.845Z,5.83
2018-07-03T12:25:34.691Z,4.20
2018-07-03T12:28:02.507Z,4.47
2018-07-03T12:30:30.289Z,4.70
2018-07-03T12:32:58.172Z,4.47
2018-07-03T12:35:25.999Z,4.80
2018-07-03T12:37:53.834Z,6.70
2018-07-03T12:40:21.655Z,4.23
2018-07-03T12:42:49.464Z,6.03
2018-07-03T12:45:17.270Z,5.23
2018-07-03T12:47:45.100Z,5.03
2018-07-03T12:50:12.883Z,5.27
2018-07-03T12:52:40.803Z,5.30
2018-07-03T12:55:08.724Z,5.43
2018-07-03T12:57:36.560Z,5.17
2018-07-03T13:00:05.093Z,17.43
2018-07-03T13:02:32.940Z,7.03
2018-07-03T13:05:00.830Z,5.37
2018-07-03T13:07:28.662Z,4.30
2018-07-03T13:09:56.578Z,5.50
2018-07-03T13:12:24.419Z,6.17
2018-07-03T13:14:52.328Z,5.70
2018-07-03T13:17:20.126Z,5.23
2018-07-03T13:19:48.028Z,5.13
2018-07-03T13:22:15.867Z,5.17
2018-07-03T13:24:43.704Z,6.20
2018-07-03T13:27:11.491Z,5.27
2018-07-03T13:29:39.274Z,5.50
2018-07-03T13:32:07.091Z,7.97
2018-07-03T13:34:34.949Z,5.80
2018-07-03T13:37:02.722Z,7.93
2018-07-03T13:39:30.667Z,5.60
2018-07-03T13:41:58.504Z,5.60
2018-07-03T13:44:26.551Z,22.73
2018-07-03T13:46:54.367Z,7.67
2018-07-03T13:49:22.195Z,5.83
2018-07-03T13:51:50.056Z,6.27
2018-07-03T13:54:17.926Z,5.47
2018-07-03T13:56:45.742Z,5.00
2018-07-03T13:59:13.511Z,5.67
2018-07-03T14:01:41.310Z,5.00
2018-07-03T14:04:09.127Z,7.03
2018-07-03T14:06:36.975Z,5.13
2018-07-03T14:09:06.174Z,5.70
2018-07-03T14:11:34.019Z,33.13
2018-07-03T14:14:01.791Z,15.77
2018-07-03T14:16:29.639Z,6.00
2018-07-03T14:18:57.423Z,5.73
2018-07-03T14:21:25.222Z,5.93
2018-07-03T14:23:52.994Z,5.00
2018-07-03T14:26:20.755Z,6.77
2018-07-03T14:28:48.615Z,5.40
2018-07-03T14:31:16.547Z,5.13
2018-07-03T14:33:44.550Z,5.37
2018-07-03T14:36:12.464Z,6.33
2018-07-03T14:38:40.555Z,7.13
2018-07-03T14:41:08.503Z,5.83
2018-07-03T14:43:36.503Z,6.83
2018-07-03T14:46:04.683Z,5.60
2018-07-03T14:48:32.462Z,7.47
2018-07-03T14:51:00.316Z,7.10
2018-07-03T14:53:28.158Z,5.97
2018-07-03T14:55:56.067Z,5.37
2018-07-03T14:58:24.000Z,5.40
2018-07-03T15:00:52.013Z,5.80
2018-07-03T15:03:19.882Z,8.13
2018-07-03T15:05:47.654Z,5.47
2018-07-03T15:08:15.506Z,10.20
2018-07-03T15:10:43.295Z,6.33
2018-07-03T15:13:11.207Z,6.73
2018-07-03T15:15:39.111Z,11.97
2018-07-03T15:18:07.095Z,13.13
2018-07-03T15:20:34.935Z,6.27
2018-07-03T15:23:02.768Z,5.23
2018-07-03T15:25:30.644Z,7.47
2018-07-03T15:27:58.480Z,6.50
2018-07-03T15:30:26.340Z,5.20
2018-07-03T15:32:54.222Z,5.60
2018-07-03T15:35:22.060Z,5.70
2018-07-03T15:37:49.818Z,5.63
2018-07-03T15:40:17.681Z,7.10
2018-07-03T15:42:45.514Z,5.27
2018-07-03T15:45:14.678Z,5.47
2018-07-03T15:47:42.514Z,7.90
2018-07-03T15:50:11.407Z,6.00
2018-07-03T15:52:39.539Z,5.73
2018-07-03T15:55:07.920Z,5.83
2018-07-03T15:57:35.835Z,6.33
2018-07-03T16:00:03.699Z,5.97
2018-07-03T16:02:31.514Z,6.87
2018-07-03T16:05:04.759Z,6.30
2018-07-03T16:07:37.879Z,7.13
2018-07-03T16:10:05.831Z,6.20
2018-07-03T16:12:33.621Z,7.00
2018-07-03T16:15:01.747Z,7.13
2018-07-03T16:17:29.553Z,5.67
2018-07-03T16:20:02.520Z,7.50
2018-07-03T16:22:30.302Z,9.40
2018-07-03T16:24:58.233Z,6.27
2018-07-03T16:27:26.012Z,9.90
2018-07-03T16:29:53.842Z,6.87
2018-07-03T16:32:21.838Z,6.87
2018-07-03T16:34:49.610Z,8.67
2018-07-03T16:37:17.402Z,8.37
2018-07-03T16:39:45.259Z,7.10
2018-07-03T16:42:13.085Z,7.17
2018-07-03T16:44:40.975Z,7.57
2018-07-03T16:47:08.762Z,7.07
2018-07-03T16:49:36.655Z,11.87
2018-07-03T16:52:04.615Z,8.93
2018-07-03T16:54:32.603Z,8.03
2018-07-03T16:57:00.551Z,8.33
2018-07-03T16:59:28.455Z,7.80
2018-07-03T17:01:56.222Z,9.83
2018-07-03T17:04:24.109Z,8.87
2018-07-03T17:06:51.908Z,8.93
2018-07-03T17:09:19.687Z,9.03
2018-07-03T17:11:47.559Z,22.97
2018-07-03T17:14:15.375Z,13.80
2018-07-03T17:16:43.239Z,10.23
2018-07-03T17:19:16.266Z,17.73
2018-07-03T17:21:44.171Z,12.40
2018-07-03T17:24:12.114Z,9.93
2018-07-03T17:26:39.916Z,12.20
2018-07-03T17:29:07.814Z,10.87
2018-07-03T17:31:35.706Z,10.67
2018-07-03T17:34:03.618Z,9.27
2018-07-03T17:36:31.556Z,34.53
2018-07-03T17:39:04.914Z,33.67
2018-07-03T17:41:38.164Z,15.43
2018-07-03T17:44:14.731Z,20.40
2018-07-03T17:46:42.514Z,31.87
2018-07-03T17:49:10.459Z,39.07
2018-07-03T17:51:38.355Z,48.80
2018-07-03T17:54:06.524Z,39.33
2018-07-03T17:56:34.382Z,33.40
2018-07-03T17:59:02.437Z,19.07
2018-07-03T18:01:30.563Z,22.40
2018-07-03T18:03:58.402Z,19.37
2018-07-03T18:06:26.586Z,12.40
2018-07-03T18:08:54.467Z,11.40
2018-07-03T18:11:22.515Z,12.53
2018-07-03T18:13:50.357Z,13.23
2018-07-03T18:16:18.692Z,189.37
2018-07-03T18:18:50.745Z,152.57
2018-07-03T18:21:18.902Z,64.03
2018-07-03T18:23:46.604Z,64.57
2018-07-03T18:26:14.409Z,64.13
2018-07-03T18:28:42.344Z,56.93
2018-07-03T18:31:10.211Z,59.73
2018-07-03T18:33:38.025Z,65.67
2018-07-03T18:36:06.033Z,39.23
2018-07-03T18:38:33.712Z,13.80
2018-07-03T18:41:01.503Z,9.57
2018-07-03T18:43:29.303Z,9.67
2018-07-03T18:45:57.107Z,10.40
2018-07-03T18:48:24.940Z,37.60
2018-07-03T18:50:52.784Z,31.97
2018-07-03T18:53:20.664Z,13.00
2018-07-03T18:55:48.503Z,14.43
2018-07-03T18:58:16.311Z,13.13
2018-07-03T19:00:44.115Z,12.70
2018-07-03T19:03:11.942Z,14.53
2018-07-03T19:05:39.778Z,13.20
2018-07-03T19:08:07.583Z,14.17
2018-07-03T19:10:35.423Z,14.13
2018-07-03T19:13:03.287Z,14.23
2018-07-03T19:15:31.263Z,17.83
2018-07-03T19:17:59.100Z,13.07
2018-07-03T19:20:27.018Z,16.43
2018-07-03T19:22:54.827Z,12.93
2018-07-03T19:25:22.618Z,38.20
2018-07-03T19:27:50.459Z,17.83
2018-07-03T19:30:18.491Z,13.37
2018-07-03T19:32:46.434Z,12.67
2018-07-03T19:35:14.220Z,12.77
2018-07-03T19:37:42.280Z,17.77
2018-07-03T19:40:10.166Z,13.87
2018-07-03T19:42:42.295Z,14.00
2018-07-03T19:45:10.198Z,12.77
2018-07-03T19:47:38.237Z,15.23
2018-07-03T19:50:06.135Z,15.30
2018-07-03T19:52:34.040Z,9.77
2018-07-03T19:55:02.094Z,12.47
2018-07-03T19:57:29.974Z,11.70
2018-07-03T19:59:58.058Z,12.20
2018-07-03T20:02:26.064Z,55.97
2018-07-03T20:04:53.923Z,20.50
2018-07-03T20:07:21.958Z,13.00
2018-07-03T20:09:49.951Z,13.23
2018-07-03T20:12:17.954Z,13.17
2018-07-03T20:14:46.291Z,12.17
2018-07-03T20:17:14.196Z,11.77
2018-07-03T20:19:42.202Z,14.40
2018-07-03T20:22:10.258Z,13.57
2018-07-03T20:24:38.112Z,16.73
2018-07-03T20:27:06.056Z,14.13
2018-07-03T20:29:33.963Z,13.40
2018-07-03T20:32:01.787Z,18.23
2018-07-03T20:34:29.648Z,13.93
2018-07-03T20:36:57.771Z,13.70
2018-07-03T20:39:25.774Z,17.27
2018-07-03T20:41:53.609Z,18.53
2018-07-03T20:44:21.632Z,16.10
2018-07-03T20:46:49.463Z,15.63
2018-07-03T20:49:17.250Z,16.07
2018-07-03T20:51:45.079Z,15.77
2018-07-03T20:54:13.014Z,16.90
2018-07-03T20:56:40.943Z,17.27
2018-07-03T20:59:08.951Z,17.30
2018-07-03T21:01:36.759Z,17.30
2018-07-03T21:04:04.717Z,19.03
2018-07-03T21:06:32.539Z,16.83
2018-07-03T21:09:00.358Z,14.87
2018-07-03T21:11:28.408Z,16.70
2018-07-03T21:13:56.224Z,15.10
2018-07-03T21:16:24.020Z,13.13
2018-07-03T21:18:52.024Z,15.27
2018-07-03T21:21:19.799Z,18.00
2018-07-03T21:23:47.590Z,13.20
2018-07-03T21:26:15.467Z,13.20
2018-07-03T21:28:43.452Z,17.37
2018-07-03T21:31:11.344Z,18.77
2018-07-03T21:33:39.224Z,17.07
2018-07-03T21:36:07.076Z,14.87
2018-07-03T21:38:34.904Z,14.80
2018-07-03T21:41:02.722Z,15.37
2018-07-03T21:43:30.504Z,15.40
2018-07-03T21:45:58.435Z,14.60
2018-07-03T21:48:26.212Z,13.47
2018-07-03T21:50:53.994Z,16.67
2018-07-03T21:53:21.798Z,15.33
2018-07-03T21:55:49.763Z,12.63
2018-07-03T21:58:17.538Z,18.83
2018-07-03T22:00:45.395Z,16.57
2018-07-03T22:03:13.179Z,18.17
2018-07-03T22:05:41.667Z,15.70
2018-07-03T22:08:09.472Z,17.50
2018-07-03T22:10:37.249Z,13.47
2018-07-03T22:13:05.124Z,18.17
2018-07-03T22:15:33.210Z,16.13
2018-07-03T22:18:01.064Z,15.53
2018-07-03T22:20:28.870Z,16.03
2018-07-03T22:22:56.711Z,15.20
2018-07-03T22:25:24.560Z,14.73
2018-07-03T22:27:52.427Z,12.70
2018-07-03T22:30:20.325Z,15.47
2018-07-03T22:32:48.155Z,12.50
2018-07-03T22:35:15.988Z,11.00
2018-07-03T22:37:43.868Z,12.67
2018-07-03T22:40:11.727Z,14.57
2018-07-03T22:42:39.516Z,12.03
2018-07-03T22:45:07.347Z,12.37
2018-07-03T22:47:35.227Z,13.23
2018-07-03T22:50:03.800Z,11.90
2018-07-03T22:52:31.786Z,11.40
2018-07-03T22:54:59.578Z,11.70
2018-07-03T22:57:27.472Z,11.93
2018-07-03T22:59:55.266Z,11.97
2018-07-03T23:02:23.054Z,12.47
2018-07-03T23:04:50.875Z,13.83
2018-07-03T23:07:18.732Z,12.47
2018-07-03T23:09:46.676Z,13.47
2018-07-03T23:12:20.411Z,13.13
2018-07-03T23:14:49.738Z,12.83
2018-07-03T23:17:17.596Z,13.13
2018-07-03T23:19:45.806Z,13.90
2018-07-03T23:22:13.756Z,13.47
2018-07-03T23:24:42.452Z,15.53
2018-07-03T23:27:10.339Z,17.13
2018-07-03T23:29:38.178Z,16.17
2018-07-03T23:32:06.008Z,13.33
2018-07-03T23:34:33.784Z,14.00
2018-07-03T23:37:01.704Z,14.03
2018-07-03T23:39:29.492Z,14.77
2018-07-03T23:41:57.254Z,16.63
2018-07-03T23:44:25.075Z,14.30
2018-07-03T23:46:58.122Z,15.23
2018-07-03T23:49:31.169Z,17.63
2018-07-03T23:52:04.205Z,13.97
2018-07-03T23:54:37.408Z,15.57
2018-07-03T23:57:10.690Z,13.10
2018-07-03T23:59:43.844Z,13.63
